createdAt,value
2023-01-19T00:01:34.839Z,19.20
2023-01-19T00:04:04.170Z,19.02
2023-01-19T00:06:32.481Z,18.60
2023-01-19T00:09:01.715Z,17.80
2023-01-19T00:11:29.471Z,19.50
2023-01-19T00:13:58.790Z,19.73
2023-01-19T00:16:26.513Z,21.48
2023-01-19T00:18:54.431Z,22.08
2023-01-19T00:21:22.751Z,22.30
2023-01-19T00:23:52.825Z,22.92
2023-01-19T00:26:23.118Z,21.45
2023-01-19T00:28:51.304Z,21.38
2023-01-19T00:31:21.537Z,22.63
2023-01-19T00:33:51.488Z,22.92
2023-01-19T00:36:19.898Z,21.52
2023-01-19T00:38:47.650Z,23.23
2023-01-19T00:41:15.453Z,22.13
2023-01-19T00:43:43.671Z,24.50
2023-01-19T00:46:11.560Z,22.48
2023-01-19T00:48:39.319Z,23.48
2023-01-19T00:51:07.103Z,23.43
2023-01-19T00:53:34.855Z,23.05
2023-01-19T00:56:02.639Z,23.63
2023-01-19T00:58:30.390Z,23.60
2023-01-19T01:01:03.909Z,23.42
2023-01-19T01:03:32.199Z,23.40
2023-01-19T01:06:00.476Z,22.97
2023-01-19T01:08:28.224Z,22.73
2023-01-19T01:10:56.143Z,23.93
2023-01-19T01:13:27.279Z,23.52
2023-01-19T01:15:56.829Z,23.20
2023-01-19T01:18:26.402Z,23.88
2023-01-19T01:20:56.212Z,24.00
2023-01-19T01:23:24.241Z,24.63
2023-01-19T01:25:52.032Z,23.27
2023-01-19T01:28:19.762Z,24.97
2023-01-19T01:30:47.801Z,23.92
2023-01-19T01:33:15.774Z,24.97
2023-01-19T01:36:05.287Z,24.45
2023-01-19T01:38:33.048Z,25.10
2023-01-19T01:41:00.737Z,22.90
2023-01-19T01:43:43.791Z,24.80
2023-01-19T01:46:15.490Z,25.20
2023-01-19T01:48:45.764Z,24.75
2023-01-19T01:51:27.912Z,26.25
2023-01-19T01:54:02.614Z,25.90
2023-01-19T01:56:35.610Z,25.75
2023-01-19T01:59:05.631Z,24.50
2023-01-19T02:01:50.982Z,25.05
2023-01-19T02:04:18.912Z,24.48
2023-01-19T02:07:06.196Z,26.23
2023-01-19T02:09:53.437Z,25.17
2023-01-19T02:12:38.613Z,23.35
2023-01-19T02:15:07.394Z,24.55
2023-01-19T02:17:35.104Z,25.65
2023-01-19T02:20:02.843Z,26.63
2023-01-19T02:22:36.109Z,24.50
2023-01-19T02:25:06.280Z,25.60
2023-01-19T02:27:34.362Z,25.15
2023-01-19T02:30:03.798Z,25.48
2023-01-19T02:32:31.720Z,27.30
2023-01-19T02:34:59.666Z,24.95
2023-01-19T02:37:28.113Z,25.27
2023-01-19T02:39:59.800Z,24.00
2023-01-19T02:42:31.663Z,25.60
2023-01-19T02:45:00.033Z,22.98
2023-01-19T02:47:27.924Z,25.25
2023-01-19T02:49:57.179Z,25.33
2023-01-19T02:52:37.178Z,24.40
2023-01-19T02:55:11.394Z,25.13
2023-01-19T02:57:54.358Z,23.80
2023-01-19T03:00:28.859Z,24.20
2023-01-19T03:03:06.002Z,24.20
2023-01-19T03:05:43.620Z,24.13
2023-01-19T03:08:18.513Z,25.60
2023-01-19T03:10:49.395Z,23.70
2023-01-19T03:13:23.712Z,24.23
2023-01-19T03:15:54.405Z,24.40
2023-01-19T03:18:26.137Z,23.30
2023-01-19T03:20:56.571Z,23.90
2023-01-19T03:23:27.537Z,23.35
2023-01-19T03:25:57.508Z,21.20
2023-01-19T03:28:28.429Z,21.92
2023-01-19T03:31:03.204Z,21.33
2023-01-19T03:33:33.411Z,21.07
2023-01-19T03:36:05.532Z,21.13
2023-01-19T03:38:36.874Z,18.90
2023-01-19T03:41:07.627Z,19.60
2023-01-19T03:43:37.418Z,19.75
2023-01-19T03:46:06.305Z,16.73
2023-01-19T03:48:34.343Z,17.38
2023-01-19T03:51:04.824Z,17.42
2023-01-19T03:53:32.491Z,18.70
2023-01-19T03:56:00.288Z,17.13
2023-01-19T03:58:28.176Z,18.48
2023-01-19T04:00:57.392Z,18.23
2023-01-19T04:03:25.100Z,17.13
2023-01-19T04:05:52.905Z,17.77
2023-01-19T04:08:20.606Z,17.88
2023-01-19T04:10:48.320Z,18.25
2023-01-19T04:13:16.077Z,17.23
2023-01-19T04:15:43.840Z,16.60
2023-01-19T04:18:13.058Z,16.85
2023-01-19T04:20:40.815Z,16.05
2023-01-19T04:23:08.550Z,16.20
2023-01-19T04:25:38.021Z,14.85
2023-01-19T04:28:06.600Z,16.50
2023-01-19T04:30:34.250Z,15.15
2023-01-19T04:33:02.397Z,15.02
2023-01-19T04:35:31.811Z,15.98
2023-01-19T04:37:59.557Z,14.70
2023-01-19T04:40:27.426Z,15.43
2023-01-19T04:42:55.495Z,15.20
2023-01-19T04:45:23.355Z,15.73
2023-01-19T04:47:52.029Z,15.57
2023-01-19T04:50:20.057Z,15.27
2023-01-19T04:52:49.426Z,14.68
2023-01-19T04:55:17.548Z,14.90
2023-01-19T04:57:45.802Z,15.63
2023-01-19T05:00:14.381Z,14.20
2023-01-19T05:02:44.450Z,14.38
2023-01-19T05:05:12.816Z,14.23
2023-01-19T05:07:40.721Z,14.40
2023-01-19T05:10:11.453Z,12.60
2023-01-19T05:12:39.561Z,13.45
2023-01-19T05:15:09.640Z,12.98
2023-01-19T05:17:37.355Z,12.43
2023-01-19T05:20:05.990Z,13.75
2023-01-19T05:22:33.717Z,14.32
2023-01-19T05:25:01.652Z,10.13
2023-01-19T05:27:30.684Z,10.40
2023-01-19T05:29:58.352Z,10.20
2023-01-19T05:32:25.996Z,11.10
2023-01-19T05:34:53.621Z,9.90
2023-01-19T05:37:21.375Z,10.37
2023-01-19T05:39:49.055Z,11.65
2023-01-19T05:42:17.093Z,9.80
2023-01-19T05:44:46.240Z,10.43
2023-01-19T05:47:14.186Z,9.90
2023-01-19T05:49:41.871Z,9.68
2023-01-19T05:52:09.627Z,9.63
2023-01-19T05:54:40.552Z,9.77
2023-01-19T05:57:08.526Z,8.93
2023-01-19T05:59:36.322Z,8.07
2023-01-19T06:02:05.521Z,7.00
2023-01-19T06:04:33.559Z,9.10
2023-01-19T06:07:02.137Z,9.43
2023-01-19T06:09:30.470Z,8.75
2023-01-19T06:11:59.447Z,8.85
2023-01-19T06:14:27.329Z,8.88
2023-01-19T06:16:55.025Z,6.75
2023-01-19T06:19:24.093Z,6.25
2023-01-19T06:21:52.434Z,7.97
2023-01-19T06:24:20.391Z,8.30
2023-01-19T06:26:48.057Z,7.80
2023-01-19T06:29:15.897Z,7.80
2023-01-19T06:31:43.878Z,9.32
2023-01-19T06:34:11.711Z,6.82
2023-01-19T06:36:40.897Z,8.80
2023-01-19T06:39:10.639Z,5.82
2023-01-19T06:41:38.620Z,7.60
2023-01-19T06:44:07.267Z,8.95
2023-01-19T06:46:35.885Z,7.75
2023-01-19T06:49:03.723Z,7.60
2023-01-19T06:51:31.468Z,7.32
2023-01-19T06:54:00.743Z,6.15
2023-01-19T06:56:28.510Z,8.32
2023-01-19T06:58:56.484Z,6.80
2023-01-19T07:01:24.242Z,8.57
2023-01-19T07:03:51.991Z,6.07
2023-01-19T07:06:19.773Z,5.72
2023-01-19T07:08:47.560Z,10.85
2023-01-19T07:11:26.597Z,6.35
2023-01-19T07:14:01.228Z,7.72
2023-01-19T07:16:29.064Z,6.77
2023-01-19T07:18:56.886Z,6.65
2023-01-19T07:21:25.005Z,7.88
2023-01-19T07:23:53.462Z,6.57
2023-01-19T07:26:25.009Z,7.65
2023-01-19T07:28:53.258Z,6.85
2023-01-19T07:31:21.332Z,11.68
2023-01-19T07:33:49.108Z,7.53
2023-01-19T07:36:16.792Z,8.30
2023-01-19T07:38:44.524Z,8.20
2023-01-19T07:41:12.364Z,7.53
2023-01-19T07:43:41.490Z,8.25
2023-01-19T07:46:09.233Z,8.55
2023-01-19T07:48:36.993Z,9.80
2023-01-19T07:51:10.971Z,9.32
2023-01-19T07:53:41.755Z,10.35
2023-01-19T07:56:10.286Z,7.85
2023-01-19T07:58:38.068Z,8.52
2023-01-19T08:01:09.240Z,11.60
2023-01-19T08:03:36.950Z,11.10
2023-01-19T08:06:05.392Z,11.93
2023-01-19T08:08:33.346Z,10.13
2023-01-19T08:11:01.158Z,9.98
2023-01-19T08:13:28.944Z,11.68
2023-01-19T08:15:56.780Z,11.80
2023-01-19T08:18:25.879Z,11.23
2023-01-19T08:20:53.521Z,9.88
2023-01-19T08:23:21.241Z,9.95
2023-01-19T08:25:48.941Z,10.15
2023-01-19T08:28:17.944Z,9.27
2023-01-19T08:30:46.245Z,13.57
2023-01-19T08:33:14.367Z,11.35
2023-01-19T08:35:45.577Z,11.25
2023-01-19T08:38:13.226Z,9.85
2023-01-19T08:40:42.536Z,13.68
2023-01-19T08:43:12.788Z,10.70
2023-01-19T08:45:48.391Z,11.52
2023-01-19T08:48:17.210Z,13.00
2023-01-19T08:50:47.568Z,10.98
2023-01-19T08:53:15.511Z,11.27
2023-01-19T08:55:43.772Z,13.05
2023-01-19T08:58:11.650Z,12.02
2023-01-19T09:00:40.968Z,13.00
2023-01-19T09:03:10.480Z,10.88
2023-01-19T09:05:39.024Z,11.85
2023-01-19T09:08:10.010Z,13.18
2023-01-19T09:10:38.042Z,12.73
2023-01-19T09:13:07.060Z,10.82
2023-01-19T09:15:37.443Z,13.48
2023-01-19T09:18:06.918Z,12.35
2023-01-19T09:20:36.205Z,13.00
2023-01-19T09:23:04.355Z,12.63
2023-01-19T09:25:33.765Z,12.83
2023-01-19T09:28:02.643Z,14.80
2023-01-19T09:30:30.665Z,10.50
2023-01-19T09:33:02.999Z,14.65
2023-01-19T09:35:31.545Z,14.15
2023-01-19T09:37:59.562Z,8.60
2023-01-19T09:40:27.656Z,9.77
2023-01-19T09:42:59.472Z,13.85
2023-01-19T09:45:32.525Z,16.40
2023-01-19T09:48:01.303Z,12.25
2023-01-19T09:50:33.250Z,12.73
2023-01-19T09:53:07.368Z,9.75
2023-01-19T09:55:35.162Z,11.77
2023-01-19T09:58:05.083Z,13.70
2023-01-19T10:00:33.517Z,13.95
2023-01-19T10:03:10.633Z,13.20
2023-01-19T10:05:41.267Z,17.30
2023-01-19T10:08:17.016Z,10.90
2023-01-19T10:10:49.250Z,7.05
2023-01-19T10:13:33.499Z,11.10
2023-01-19T10:16:08.356Z,10.52
2023-01-19T10:18:47.427Z,13.20
2023-01-19T10:21:19.123Z,12.63
2023-01-19T10:23:50.158Z,12.05
2023-01-19T10:26:21.806Z,10.50
2023-01-19T10:28:54.319Z,11.35
2023-01-19T10:31:24.899Z,9.68
2023-01-19T10:33:54.101Z,8.13
2023-01-19T10:36:23.398Z,11.10
2023-01-19T10:38:51.973Z,9.20
2023-01-19T10:41:22.280Z,10.77
2023-01-19T10:44:00.669Z,12.40
2023-01-19T10:46:35.183Z,8.77
2023-01-19T10:49:03.153Z,12.45
2023-01-19T10:51:30.882Z,12.80
2023-01-19T10:54:01.118Z,9.00
2023-01-19T10:56:32.558Z,8.87
2023-01-19T10:59:03.507Z,8.15
2023-01-19T11:01:36.040Z,10.68
2023-01-19T11:04:22.056Z,9.95
2023-01-19T11:06:49.829Z,11.70
2023-01-19T11:09:19.906Z,9.05
2023-01-19T11:11:49.833Z,10.50
2023-01-19T11:14:22.108Z,10.13
2023-01-19T11:16:52.927Z,8.85
2023-01-19T11:19:23.314Z,10.90
2023-01-19T11:21:50.990Z,11.88
2023-01-19T11:24:18.990Z,9.50
2023-01-19T11:26:48.987Z,9.25
2023-01-19T11:29:22.137Z,10.75
2023-01-19T11:31:50.533Z,11.80
2023-01-19T11:34:29.533Z,11.05
2023-01-19T11:36:59.416Z,11.13
2023-01-19T11:39:29.139Z,11.60
2023-01-19T11:41:58.604Z,9.38
2023-01-19T11:44:31.226Z,7.78
2023-01-19T11:47:00.883Z,10.57
2023-01-19T11:49:39.821Z,10.33
2023-01-19T11:52:14.038Z,9.00
2023-01-19T11:54:47.413Z,13.03
2023-01-19T11:57:18.129Z,10.73
2023-01-19T11:59:47.587Z,9.47
2023-01-19T12:02:25.646Z,10.52
2023-01-19T12:04:56.779Z,10.55
2023-01-19T12:07:29.288Z,12.35
2023-01-19T12:10:02.832Z,10.43
2023-01-19T12:12:32.294Z,9.75
2023-01-19T12:15:04.367Z,8.65
2023-01-19T12:17:35.947Z,7.35
2023-01-19T12:20:09.154Z,8.38
2023-01-19T12:22:41.695Z,10.15
2023-01-19T12:25:16.198Z,9.53
2023-01-19T12:27:45.441Z,8.80
2023-01-19T12:30:20.656Z,12.15
2023-01-19T12:32:48.689Z,9.85
2023-01-19T12:35:53.899Z,13.00
2023-01-19T12:38:46.427Z,11.20
2023-01-19T12:41:27.930Z,13.00
2023-01-19T12:44:19.202Z,12.43
2023-01-19T12:46:50.223Z,11.75
2023-01-19T12:49:24.263Z,10.32
2023-01-19T12:51:53.789Z,14.05
2023-01-19T12:54:31.600Z,11.57
2023-01-19T12:57:01.979Z,9.70
2023-01-19T12:59:29.984Z,12.00
2023-01-19T13:02:37.840Z,10.80
2023-01-19T13:05:12.492Z,7.78
2023-01-19T13:08:15.143Z,8.65
2023-01-19T13:11:19.909Z,6.75
2023-01-19T13:14:27.680Z,8.60
2023-01-19T13:17:20.485Z,8.30
2023-01-19T13:20:06.479Z,7.75
2023-01-19T13:23:05.553Z,7.75
2023-01-19T13:25:35.831Z,5.75
2023-01-19T13:28:10.030Z,5.50
2023-01-19T13:30:38.765Z,8.57
2023-01-19T13:33:11.431Z,6.87
2023-01-19T13:35:40.858Z,5.13
2023-01-19T13:38:08.877Z,7.37
2023-01-19T13:40:39.905Z,7.17
2023-01-19T13:43:14.668Z,5.03
2023-01-19T13:45:43.024Z,7.05
2023-01-19T13:48:16.235Z,4.70
2023-01-19T13:50:58.215Z,6.40
2023-01-19T13:53:26.062Z,7.10
2023-01-19T13:56:14.128Z,5.97
2023-01-19T13:58:41.957Z,7.40
2023-01-19T14:01:21.887Z,5.32
2023-01-19T14:03:52.342Z,4.85
2023-01-19T14:06:32.527Z,8.50
2023-01-19T14:09:07.864Z,4.30
2023-01-19T14:11:35.622Z,8.55
2023-01-19T14:14:04.056Z,7.03
2023-01-19T14:16:32.105Z,6.70
2023-01-19T14:19:01.213Z,7.63
2023-01-19T14:21:40.787Z,6.03
2023-01-19T14:24:10.012Z,6.03
2023-01-19T14:26:45.075Z,5.75
2023-01-19T14:29:18.884Z,8.10
2023-01-19T14:32:15.998Z,4.38
2023-01-19T14:34:44.842Z,4.60
2023-01-19T14:37:25.981Z,5.28
2023-01-19T14:39:57.291Z,4.67
2023-01-19T14:42:28.176Z,6.10
2023-01-19T14:44:57.571Z,6.22
2023-01-19T14:47:32.090Z,4.72
2023-01-19T14:50:03.760Z,7.78
2023-01-19T14:52:35.932Z,6.13
2023-01-19T14:55:06.929Z,11.20
2023-01-19T14:57:36.121Z,10.80
2023-01-19T15:00:12.223Z,10.32
2023-01-19T15:02:39.989Z,13.25
2023-01-19T15:05:08.844Z,11.85
2023-01-19T15:07:39.099Z,11.90
2023-01-19T15:10:12.510Z,14.57
2023-01-19T15:12:40.242Z,18.47
2023-01-19T15:15:15.104Z,15.55
2023-01-19T15:17:43.046Z,16.73
2023-01-19T15:20:15.912Z,14.90
2023-01-19T15:22:45.429Z,22.08
2023-01-19T15:25:16.775Z,19.55
2023-01-19T15:27:45.145Z,20.00
2023-01-19T15:30:21.002Z,14.57
2023-01-19T15:32:48.787Z,18.65
2023-01-19T15:35:17.952Z,21.57
2023-01-19T15:37:47.417Z,17.48
2023-01-19T15:40:15.654Z,14.60
2023-01-19T15:43:16.621Z,17.38
2023-01-19T15:45:45.269Z,17.63
2023-01-19T15:48:13.185Z,16.15
2023-01-19T15:50:42.228Z,19.65
2023-01-19T15:53:14.462Z,15.35
2023-01-19T15:55:42.301Z,17.88
2023-01-19T15:58:10.045Z,23.65
2023-01-19T16:00:39.273Z,33.92
2023-01-19T16:03:07.196Z,37.63
2023-01-19T16:05:42.921Z,36.60
2023-01-19T16:08:11.759Z,28.35
2023-01-19T16:10:39.924Z,17.55
2023-01-19T16:13:07.835Z,19.63
2023-01-19T16:15:35.932Z,15.77
2023-01-19T16:18:07.371Z,21.17
2023-01-19T16:20:35.172Z,19.25
2023-01-19T16:23:14.963Z,19.77
2023-01-19T16:25:42.966Z,14.00
2023-01-19T16:28:10.929Z,14.45
2023-01-19T16:30:38.664Z,17.95
2023-01-19T16:33:08.453Z,17.15
2023-01-19T16:35:36.273Z,12.68
2023-01-19T16:38:06.688Z,12.48
2023-01-19T16:40:34.461Z,13.43
2023-01-19T16:43:05.085Z,19.40
2023-01-19T16:45:32.953Z,10.88
2023-01-19T16:48:00.868Z,9.20
2023-01-19T16:50:30.072Z,7.47
2023-01-19T16:53:00.380Z,7.97
2023-01-19T16:55:28.172Z,9.80
2023-01-19T16:57:56.826Z,13.23
2023-01-19T17:00:24.733Z,17.80
2023-01-19T17:02:52.640Z,17.70
2023-01-19T17:05:20.366Z,16.87
2023-01-19T17:07:49.516Z,13.52
2023-01-19T17:10:17.488Z,21.10
2023-01-19T17:12:45.240Z,24.80
2023-01-19T17:15:12.961Z,25.90
2023-01-19T17:17:40.614Z,39.45
2023-01-19T17:20:11.066Z,18.88
2023-01-19T17:22:39.137Z,16.42
2023-01-19T17:25:09.370Z,9.65
2023-01-19T17:27:37.048Z,9.77
2023-01-19T17:30:05.044Z,13.65
2023-01-19T17:32:32.721Z,14.55
2023-01-19T17:35:00.483Z,17.25
2023-01-19T17:37:28.193Z,15.50
2023-01-19T17:39:55.925Z,18.98
2023-01-19T17:42:25.411Z,24.67
2023-01-19T17:44:53.075Z,22.15
2023-01-19T17:47:24.660Z,14.30
2023-01-19T17:49:52.472Z,15.95
2023-01-19T17:52:20.141Z,16.40
2023-01-19T17:54:47.822Z,19.10
2023-01-19T17:57:15.499Z,22.05
2023-01-19T17:59:44.678Z,79.32
2023-01-19T18:02:12.452Z,81.70
2023-01-19T18:04:40.693Z,64.47
2023-01-19T18:07:08.511Z,46.40
2023-01-19T18:09:36.188Z,120.75
2023-01-19T18:12:03.956Z,101.28
2023-01-19T18:14:31.668Z,32.70
2023-01-19T18:17:00.776Z,39.72
2023-01-19T18:19:28.615Z,42.47
2023-01-19T18:21:56.669Z,37.57
2023-01-19T18:24:24.334Z,21.88
2023-01-19T18:26:54.255Z,22.45
2023-01-19T18:29:23.289Z,25.05
2023-01-19T18:31:50.996Z,24.30
2023-01-19T18:34:20.276Z,22.50
2023-01-19T18:36:48.018Z,23.55
2023-01-19T18:39:15.763Z,26.25
2023-01-19T18:41:43.525Z,33.03
2023-01-19T18:44:11.991Z,31.02
2023-01-19T18:46:40.170Z,34.45
2023-01-19T18:49:07.981Z,38.58
2023-01-19T18:51:39.544Z,45.67
2023-01-19T18:54:07.481Z,36.22
2023-01-19T18:56:35.494Z,31.50
2023-01-19T18:59:03.602Z,31.30
2023-01-19T19:01:33.319Z,28.98
2023-01-19T19:04:01.754Z,30.67
2023-01-19T19:06:29.608Z,27.43
2023-01-19T19:08:59.191Z,36.67
2023-01-19T19:11:27.735Z,31.55
2023-01-19T19:13:56.768Z,32.37
2023-01-19T19:16:24.677Z,35.00
2023-01-19T19:18:52.506Z,37.37
2023-01-19T19:21:21.740Z,36.65
2023-01-19T19:23:53.084Z,36.57
2023-01-19T19:26:22.785Z,37.03
2023-01-19T19:28:50.635Z,40.00
2023-01-19T19:31:20.902Z,37.22
2023-01-19T19:33:50.811Z,39.30
2023-01-19T19:36:19.900Z,41.30
2023-01-19T19:38:47.865Z,41.00
2023-01-19T19:41:17.647Z,39.25
2023-01-19T19:43:46.819Z,41.00
2023-01-19T19:46:16.470Z,42.42
2023-01-19T19:48:44.346Z,44.05
2023-01-19T19:51:18.506Z,51.22
2023-01-19T19:53:49.615Z,68.13
2023-01-19T19:56:21.035Z,57.60
2023-01-19T19:58:51.169Z,51.60
2023-01-19T20:01:20.839Z,41.63
2023-01-19T20:03:48.773Z,42.00
2023-01-19T20:06:20.790Z,44.05
2023-01-19T20:08:48.706Z,45.07
2023-01-19T20:11:19.028Z,50.08
2023-01-19T20:13:47.716Z,57.13
2023-01-19T20:16:19.296Z,59.00
2023-01-19T20:18:51.070Z,59.30
2023-01-19T20:21:20.357Z,62.75
2023-01-19T20:23:48.887Z,63.85
2023-01-19T20:26:19.211Z,45.30
2023-01-19T20:28:47.551Z,40.00
2023-01-19T20:31:19.135Z,41.70
2023-01-19T20:33:48.119Z,42.15
2023-01-19T20:36:16.301Z,42.22
2023-01-19T20:38:44.075Z,49.47
2023-01-19T20:41:13.649Z,43.33
2023-01-19T20:43:41.404Z,42.53
2023-01-19T20:46:09.315Z,41.03
2023-01-19T20:48:39.192Z,49.90
2023-01-19T20:51:08.448Z,50.65
2023-01-19T20:53:36.480Z,42.88
2023-01-19T20:56:06.219Z,44.50
2023-01-19T20:58:33.946Z,45.72
2023-01-19T21:01:01.842Z,42.22
2023-01-19T21:03:30.191Z,46.67
2023-01-19T21:05:59.677Z,49.40
2023-01-19T21:08:27.375Z,50.88
2023-01-19T21:10:56.944Z,55.47
2023-01-19T21:13:24.656Z,48.78
2023-01-19T21:15:52.361Z,46.15
2023-01-19T21:18:20.085Z,49.30
2023-01-19T21:20:48.588Z,89.38
2023-01-19T21:23:19.082Z,60.08
2023-01-19T21:25:50.874Z,82.80
2023-01-19T21:28:19.099Z,63.80
2023-01-19T21:30:47.642Z,58.40
2023-01-19T21:33:15.962Z,78.57
2023-01-19T21:35:51.194Z,54.85
2023-01-19T21:38:20.474Z,47.20
2023-01-19T21:40:48.172Z,47.78
2023-01-19T21:43:15.973Z,48.35
2023-01-19T21:45:44.533Z,48.53
2023-01-19T21:48:12.209Z,50.70
2023-01-19T21:50:40.399Z,50.92
2023-01-19T21:53:11.134Z,43.55
2023-01-19T21:55:44.707Z,44.40
2023-01-19T21:58:12.440Z,41.58
2023-01-19T22:00:40.978Z,40.58
2023-01-19T22:03:08.890Z,42.35
2023-01-19T22:05:37.181Z,40.85
2023-01-19T22:08:06.225Z,36.65
2023-01-19T22:10:36.736Z,38.28
2023-01-19T22:13:06.725Z,35.10
2023-01-19T22:15:34.652Z,34.72
2023-01-19T22:18:02.391Z,31.40
2023-01-19T22:20:30.174Z,33.97
2023-01-19T22:22:58.139Z,35.13
2023-01-19T22:25:27.802Z,36.30
2023-01-19T22:27:55.652Z,38.03
2023-01-19T22:30:24.856Z,41.30
2023-01-19T22:32:53.112Z,40.22
2023-01-19T22:35:21.206Z,40.80
2023-01-19T22:37:48.908Z,42.60
2023-01-19T22:40:17.114Z,43.63
2023-01-19T22:42:46.693Z,40.90
2023-01-19T22:45:15.041Z,40.60
2023-01-19T22:47:44.482Z,48.22
2023-01-19T22:50:12.442Z,41.57
2023-01-19T22:52:40.077Z,44.37
2023-01-19T22:55:08.183Z,42.72
2023-01-19T22:57:36.578Z,44.88
2023-01-19T23:00:06.763Z,44.97
2023-01-19T23:02:34.470Z,45.35
2023-01-19T23:05:03.852Z,42.00
2023-01-19T23:07:31.612Z,42.70
2023-01-19T23:09:59.594Z,43.08
2023-01-19T23:12:27.307Z,41.55
2023-01-19T23:14:55.055Z,41.05
2023-01-19T23:17:22.789Z,43.25
2023-01-19T23:19:50.458Z,43.58
2023-01-19T23:22:19.619Z,42.37
2023-01-19T23:24:47.377Z,43.25
2023-01-19T23:27:15.194Z,41.13
2023-01-19T23:29:42.863Z,44.30
2023-01-19T23:32:10.595Z,40.47
2023-01-19T23:34:38.393Z,44.30
2023-01-19T23:37:06.087Z,45.77
2023-01-19T23:39:35.224Z,43.28
2023-01-19T23:42:03.537Z,44.75
2023-01-19T23:44:31.293Z,43.78
2023-01-19T23:46:59.075Z,42.90
2023-01-19T23:49:26.993Z,44.65
2023-01-19T23:51:54.712Z,43.30
2023-01-19T23:54:22.448Z,44.97
2023-01-19T23:56:51.576Z,46.78
2023-01-19T23:59:19.353Z,44.15
